createdAt,value
2022-11-24T00:04:07.944Z,57.75
2022-11-24T00:09:10.676Z,57.59
2022-11-24T00:14:07.706Z,57.81
2022-11-24T00:19:07.755Z,57.69
2022-11-24T00:24:01.901Z,57.75
2022-11-24T00:28:57.776Z,57.89
2022-11-24T00:33:54.307Z,57.83
2022-11-24T00:38:48.106Z,58.07
2022-11-24T00:43:43.329Z,58.01
2022-11-24T00:48:36.610Z,57.95
2022-11-24T00:53:30.785Z,57.96
2022-11-24T00:58:26.169Z,57.73
2022-11-24T01:03:20.855Z,58.05
2022-11-24T01:08:13.785Z,58.05
2022-11-24T01:13:06.913Z,58.15
2022-11-24T01:18:00.457Z,57.85
2022-11-24T01:22:54.195Z,57.99
2022-11-24T01:27:46.879Z,57.87
2022-11-24T01:32:40.639Z,58.12
2022-11-24T01:37:34.117Z,57.76
2022-11-24T01:42:29.076Z,58.01
2022-11-24T01:47:37.225Z,58.06
2022-11-24T01:52:39.292Z,57.77
2022-11-24T01:57:44.810Z,57.75
2022-11-24T02:02:38.483Z,57.86
2022-11-24T02:07:32.937Z,57.55
2022-11-24T02:12:27.905Z,57.72
2022-11-24T02:17:21.377Z,57.76
2022-11-24T02:22:29.243Z,57.60
2022-11-24T02:27:22.668Z,57.72
2022-11-24T02:32:17.265Z,57.56
2022-11-24T02:37:11.283Z,57.62
2022-11-24T02:42:09.538Z,57.55
2022-11-24T02:47:12.274Z,57.52
2022-11-24T02:52:06.625Z,57.35
2022-11-24T02:57:00.668Z,57.40
2022-11-24T03:01:53.797Z,57.41
2022-11-24T03:06:47.332Z,57.15
2022-11-24T03:11:40.038Z,57.35
2022-11-24T03:16:33.439Z,57.20
2022-11-24T03:21:27.424Z,56.99
2022-11-24T03:26:22.512Z,56.88
2022-11-24T03:31:15.641Z,56.96
2022-11-24T03:36:11.551Z,56.70
2022-11-24T03:41:05.073Z,56.86
2022-11-24T03:45:58.837Z,56.67
2022-11-24T03:50:56.798Z,56.66
2022-11-24T03:55:50.239Z,56.66
2022-11-24T04:00:42.867Z,56.52
2022-11-24T04:05:36.880Z,56.35
2022-11-24T04:10:32.350Z,56.39
2022-11-24T04:15:26.035Z,56.38
2022-11-24T04:20:20.544Z,56.10
2022-11-24T04:25:14.302Z,56.13
2022-11-24T04:30:09.683Z,56.13
2022-11-24T04:35:03.536Z,56.10
2022-11-24T04:39:57.190Z,56.09
2022-11-24T04:44:51.424Z,56.07
2022-11-24T04:49:44.899Z,56.07
2022-11-24T04:54:41.279Z,56.20
2022-11-24T04:59:35.273Z,55.87
2022-11-24T05:04:28.706Z,56.02
2022-11-24T05:09:21.638Z,56.00
2022-11-24T05:14:15.733Z,55.84
2022-11-24T05:19:09.285Z,55.54
2022-11-24T05:24:03.056Z,55.78
2022-11-24T05:28:56.653Z,55.74
2022-11-24T05:33:49.977Z,55.54
2022-11-24T05:38:47.971Z,55.70
2022-11-24T05:43:42.231Z,55.78
2022-11-24T05:48:35.867Z,55.57
2022-11-24T05:53:28.978Z,55.65
2022-11-24T05:58:22.864Z,55.56
2022-11-24T06:03:16.436Z,55.52
2022-11-24T06:08:10.311Z,55.54
2022-11-24T06:13:06.976Z,55.66
2022-11-24T06:17:59.565Z,55.48
2022-11-24T06:22:53.824Z,55.55
2022-11-24T06:27:47.601Z,55.45
2022-11-24T06:32:49.309Z,55.24
2022-11-24T06:37:43.421Z,55.14
2022-11-24T06:42:37.313Z,54.49
2022-11-24T06:47:30.290Z,53.89
2022-11-24T06:52:24.522Z,52.79
2022-11-24T06:57:18.292Z,52.65
2022-11-24T07:02:12.217Z,49.11
2022-11-24T07:07:05.969Z,47.78
2022-11-24T07:12:00.129Z,49.06
2022-11-24T07:16:58.061Z,47.36
2022-11-24T07:21:51.869Z,47.37
2022-11-24T07:26:45.842Z,44.67
2022-11-24T07:31:39.763Z,47.13
2022-11-24T07:36:32.958Z,46.43
2022-11-24T07:41:26.899Z,48.21
2022-11-24T07:46:20.792Z,48.55
2022-11-24T07:51:14.877Z,48.92
2022-11-24T07:56:09.736Z,48.60
2022-11-24T08:01:13.784Z,48.93
2022-11-24T08:06:25.098Z,49.68
2022-11-24T08:11:21.068Z,49.75
2022-11-24T08:16:17.182Z,49.62
2022-11-24T08:21:15.029Z,49.78
2022-11-24T08:26:11.869Z,49.66
2022-11-24T08:31:07.309Z,49.89
2022-11-24T08:36:05.788Z,49.92
2022-11-24T08:41:04.723Z,49.82
2022-11-24T08:46:06.336Z,49.99
2022-11-24T08:51:01.058Z,49.97
2022-11-24T08:55:54.973Z,49.99
2022-11-24T09:00:48.358Z,50.09
2022-11-24T09:05:51.804Z,50.42
2022-11-24T09:10:46.703Z,50.30
2022-11-24T09:15:40.734Z,50.39
2022-11-24T09:20:34.501Z,50.34
2022-11-24T09:25:29.508Z,50.41
2022-11-24T09:30:23.733Z,50.15
2022-11-24T09:35:17.873Z,50.17
2022-11-24T09:40:14.337Z,50.22
2022-11-24T09:45:49.322Z,50.12
2022-11-24T09:50:44.563Z,50.41
2022-11-24T09:55:49.777Z,50.28
2022-11-24T10:00:43.907Z,50.24
2022-11-24T10:05:37.330Z,50.35
2022-11-24T10:10:56.797Z,50.50
2022-11-24T10:16:16.602Z,50.01
2022-11-24T10:21:47.229Z,49.94
2022-11-24T10:26:41.520Z,49.97
2022-11-24T10:31:39.648Z,50.10
2022-11-24T10:37:12.756Z,50.13
2022-11-24T10:42:17.738Z,50.08
2022-11-24T10:47:34.344Z,50.07
2022-11-24T10:52:30.646Z,50.18
2022-11-24T10:57:30.854Z,50.28
2022-11-24T11:02:29.368Z,50.40
2022-11-24T11:07:24.465Z,50.63
2022-11-24T11:12:43.312Z,50.39
2022-11-24T11:17:39.613Z,50.58
2022-11-24T11:22:35.676Z,50.63
2022-11-24T11:27:29.123Z,50.59
2022-11-24T11:37:37.899Z,50.82
2022-11-24T11:47:58.303Z,50.69
2022-11-24T11:53:18.740Z,49.77
2022-11-24T11:58:14.630Z,50.78
2022-11-24T12:03:32.965Z,51.11
2022-11-24T12:09:19.097Z,51.88
2022-11-24T12:14:25.197Z,51.71
2022-11-24T12:19:39.396Z,51.51
2022-11-24T12:24:57.891Z,51.42
2022-11-24T12:30:05.398Z,51.05
2022-11-24T12:35:04.121Z,51.08
2022-11-24T12:40:32.935Z,51.17
2022-11-24T12:45:59.554Z,51.20
2022-11-24T12:50:56.274Z,51.09
2022-11-24T12:56:09.081Z,50.99
2022-11-24T13:01:28.227Z,51.04
2022-11-24T13:06:49.122Z,51.18
2022-11-24T13:12:13.521Z,50.77
2022-11-24T13:18:06.828Z,50.76
2022-11-24T13:23:06.223Z,50.86
2022-11-24T13:28:39.497Z,51.17
2022-11-24T13:33:36.133Z,52.04
2022-11-24T13:39:02.652Z,53.46
2022-11-24T13:44:16.698Z,55.17
2022-11-24T13:49:15.275Z,54.19
2022-11-24T13:54:11.935Z,53.94
2022-11-24T13:59:19.817Z,53.66
2022-11-24T14:04:32.269Z,53.45
2022-11-24T14:09:28.760Z,53.17
2022-11-24T14:14:33.478Z,53.10
2022-11-24T14:19:30.890Z,52.58
2022-11-24T14:24:27.500Z,52.40
2022-11-24T14:29:24.476Z,52.53
2022-11-24T14:34:21.456Z,52.64
2022-11-24T14:39:18.702Z,52.46
2022-11-24T14:44:11.879Z,52.32
2022-11-24T14:49:05.701Z,52.21
2022-11-24T14:54:06.145Z,52.11
2022-11-24T14:58:59.879Z,52.17
2022-11-24T15:05:01.412Z,51.94
2022-11-24T15:09:49.202Z,52.04
2022-11-24T15:14:52.665Z,52.07
2022-11-24T15:19:49.418Z,52.19
2022-11-24T15:24:55.759Z,52.30
2022-11-24T15:29:49.392Z,52.27
2022-11-24T15:34:42.833Z,52.32
2022-11-24T15:39:36.675Z,51.86
2022-11-24T15:44:30.350Z,51.98
2022-11-24T15:49:24.196Z,52.19
2022-11-24T15:54:19.908Z,52.33
2022-11-24T15:59:20.185Z,52.37
2022-11-24T16:04:14.888Z,52.42
2022-11-24T16:09:14.498Z,52.50
2022-11-24T16:14:08.797Z,52.61
2022-11-24T16:19:07.376Z,52.68
2022-11-24T16:24:01.126Z,52.74
2022-11-24T16:28:55.471Z,52.67
2022-11-24T16:33:49.008Z,52.54
2022-11-24T16:38:42.387Z,52.48
2022-11-24T16:43:36.162Z,52.59
2022-11-24T16:48:29.371Z,52.33
2022-11-24T16:53:22.764Z,52.43
2022-11-24T16:58:16.294Z,52.54
2022-11-24T17:03:09.676Z,52.66
2022-11-24T17:08:03.759Z,52.52
2022-11-24T17:12:57.556Z,52.39
2022-11-24T17:18:22.207Z,52.48
2022-11-24T17:23:05.527Z,52.44
2022-11-24T17:27:59.000Z,52.44
2022-11-24T17:32:56.805Z,52.38
2022-11-24T17:37:50.307Z,52.56
2022-11-24T17:42:44.007Z,52.60
2022-11-24T17:47:38.541Z,52.62
2022-11-24T17:52:32.620Z,52.89
2022-11-24T17:57:26.810Z,52.88
2022-11-24T18:02:20.612Z,52.85
2022-11-24T18:07:13.567Z,52.95
2022-11-24T18:12:08.945Z,53.16
2022-11-24T18:17:01.963Z,52.88
2022-11-24T18:21:56.470Z,52.74
2022-11-24T18:26:51.036Z,52.98
2022-11-24T18:31:44.140Z,52.85
2022-11-24T18:36:39.245Z,53.28
2022-11-24T18:41:32.587Z,53.18
2022-11-24T18:46:26.205Z,53.26
2022-11-24T18:51:19.788Z,53.25
2022-11-24T18:56:16.507Z,53.39
2022-11-24T19:01:19.413Z,53.37
2022-11-24T19:06:36.684Z,53.31
2022-11-24T19:11:35.843Z,53.20
2022-11-24T19:16:29.217Z,53.07
2022-11-24T19:21:22.887Z,53.27
2022-11-24T19:26:16.809Z,52.87
2022-11-24T19:31:13.165Z,52.81
2022-11-24T19:36:14.377Z,53.34
2022-11-24T19:41:10.728Z,52.97
2022-11-24T19:46:04.985Z,52.73
2022-11-24T19:51:09.151Z,52.38
2022-11-24T19:56:06.942Z,49.42
2022-11-24T20:01:08.231Z,50.21
2022-11-24T20:06:02.508Z,50.60
2022-11-24T20:10:56.542Z,50.76
2022-11-24T20:15:50.475Z,51.16
2022-11-24T20:20:44.636Z,51.18
2022-11-24T20:25:38.563Z,51.20
2022-11-24T20:30:32.639Z,51.32
2022-11-24T20:35:33.198Z,51.54
2022-11-24T20:40:26.044Z,51.39
2022-11-24T20:45:20.593Z,51.85
2022-11-24T20:50:13.943Z,51.64
2022-11-24T20:55:09.744Z,51.84
2022-11-24T21:00:03.206Z,51.85
2022-11-24T21:04:56.665Z,51.91
2022-11-24T21:09:50.540Z,52.17
2022-11-24T21:14:44.449Z,51.95
2022-11-24T21:19:38.619Z,52.23
2022-11-24T21:24:36.384Z,52.40
2022-11-24T21:29:30.733Z,52.98
2022-11-24T21:34:25.106Z,53.73
2022-11-24T21:39:19.378Z,53.66
2022-11-24T21:44:14.661Z,53.92
2022-11-24T21:49:08.206Z,54.89
2022-11-24T21:54:02.269Z,55.05
2022-11-24T21:58:57.566Z,55.00
2022-11-24T22:03:50.855Z,55.20
2022-11-24T22:08:44.273Z,55.51
2022-11-24T22:13:37.537Z,55.96
2022-11-24T22:18:33.199Z,55.96
2022-11-24T22:23:26.574Z,55.84
2022-11-24T22:28:20.686Z,55.80
2022-11-24T22:33:14.301Z,56.11
2022-11-24T22:38:07.920Z,56.49
2022-11-24T22:43:02.226Z,56.51
2022-11-24T22:47:55.859Z,56.70
2022-11-24T22:52:51.235Z,56.71
2022-11-24T22:57:48.102Z,56.58
2022-11-24T23:02:41.746Z,56.61
2022-11-24T23:07:35.828Z,56.71
2022-11-24T23:12:31.134Z,56.63
2022-11-24T23:17:24.271Z,56.95
2022-11-24T23:22:17.901Z,56.63
2022-11-24T23:27:11.500Z,56.98
2022-11-24T23:32:06.146Z,56.60
2022-11-24T23:37:00.137Z,56.88
2022-11-24T23:41:54.162Z,56.83
2022-11-24T23:46:48.431Z,57.22
2022-11-24T23:51:42.843Z,57.03
2022-11-24T23:56:36.183Z,56.99
